sensor_id;sensor_type;location;lat;lon;timestamp;temperature;humidity
4820;DHT22;2424;49.696;6.630;2022-08-19T00:01:16;20.00;99.90
4820;DHT22;2424;49.696;6.630;2022-08-19T00:06:41;20.00;99.90
4820;DHT22;2424;49.696;6.630;2022-08-19T00:12:04;19.90;99.90
4820;DHT22;2424;49.696;6.630;2022-08-19T00:17:26;19.90;99.90
4820;DHT22;2424;49.696;6.630;2022-08-19T00:22:50;19.90;99.90
4820;DHT22;2424;49.696;6.630;2022-08-19T00:28:12;19.90;99.90
4820;DHT22;2424;49.696;6.630;2022-08-19T00:33:34;19.80;99.90
4820;DHT22;2424;49.696;6.630;2022-08-19T00:38:58;19.80;99.90
4820;DHT22;2424;49.696;6.630;2022-08-19T00:44:22;19.80;99.90
4820;DHT22;2424;49.696;6.630;2022-08-19T00:49:48;19.80;99.90
4820;DHT22;2424;49.696;6.630;2022-08-19T00:55:18;19.70;99.90
4820;DHT22;2424;49.696;6.630;2022-08-19T01:00:40;19.70;99.90
4820;DHT22;2424;49.696;6.630;2022-08-19T01:06:02;19.70;99.90
4820;DHT22;2424;49.696;6.630;2022-08-19T01:11:27;19.60;99.90
4820;DHT22;2424;49.696;6.630;2022-08-19T01:16:50;19.70;99.90
4820;DHT22;2424;49.696;6.630;2022-08-19T01:22:19;19.60;99.90
4820;DHT22;2424;49.696;6.630;2022-08-19T01:27:48;19.60;99.90
4820;DHT22;2424;49.696;6.630;2022-08-19T01:33:10;19.50;99.90
4820;DHT22;2424;49.696;6.630;2022-08-19T01:38:35;19.50;99.90
4820;DHT22;2424;49.696;6.630;2022-08-19T01:43:59;19.50;99.90
4820;DHT22;2424;49.696;6.630;2022-08-19T01:49:25;19.40;99.90
4820;DHT22;2424;49.696;6.630;2022-08-19T01:54:48;19.40;99.90
4820;DHT22;2424;49.696;6.630;2022-08-19T02:00:14;19.40;99.90
4820;DHT22;2424;49.696;6.630;2022-08-19T02:05:37;19.30;99.90
4820;DHT22;2424;49.696;6.630;2022-08-19T02:10:59;19.30;99.90
4820;DHT22;2424;49.696;6.630;2022-08-19T02:16:23;19.20;99.90
4820;DHT22;2424;49.696;6.630;2022-08-19T02:21:45;19.10;99.90
4820;DHT22;2424;49.696;6.630;2022-08-19T02:27:07;19.10;99.90
4820;DHT22;2424;49.696;6.630;2022-08-19T02:32:31;19.00;99.90
4820;DHT22;2424;49.696;6.630;2022-08-19T02:37:53;19.00;99.90
4820;DHT22;2424;49.696;6.630;2022-08-19T02:43:34;19.00;99.90
4820;DHT22;2424;49.696;6.630;2022-08-19T02:49:01;18.80;99.90
4820;DHT22;2424;49.696;6.630;2022-08-19T02:54:23;18.80;99.90
4820;DHT22;2424;49.696;6.630;2022-08-19T02:59:46;18.80;99.90
4820;DHT22;2424;49.696;6.630;2022-08-19T03:05:09;18.80;99.90
4820;DHT22;2424;49.696;6.630;2022-08-19T03:10:31;18.60;99.90
4820;DHT22;2424;49.696;6.630;2022-08-19T03:15:53;18.60;99.90
4820;DHT22;2424;49.696;6.630;2022-08-19T03:21:21;18.60;99.90
4820;DHT22;2424;49.696;6.630;2022-08-19T03:26:46;18.60;99.90
4820;DHT22;2424;49.696;6.630;2022-08-19T03:32:09;18.60;99.90
4820;DHT22;2424;49.696;6.630;2022-08-19T03:37:33;18.50;99.90
4820;DHT22;2424;49.696;6.630;2022-08-19T03:42:55;18.50;99.90
4820;DHT22;2424;49.696;6.630;2022-08-19T03:48:17;18.40;99.90
4820;DHT22;2424;49.696;6.630;2022-08-19T03:53:41;18.40;99.90
4820;DHT22;2424;49.696;6.630;2022-08-19T03:59:04;18.40;99.90
4820;DHT22;2424;49.696;6.630;2022-08-19T04:04:27;18.20;99.90
4820;DHT22;2424;49.696;6.630;2022-08-19T04:09:51;18.20;99.90
4820;DHT22;2424;49.696;6.630;2022-08-19T04:15:13;18.20;99.90
4820;DHT22;2424;49.696;6.630;2022-08-19T04:20:40;17.90;99.90
4820;DHT22;2424;49.696;6.630;2022-08-19T04:26:04;18.00;99.90
4820;DHT22;2424;49.696;6.630;2022-08-19T04:31:28;18.00;99.90
4820;DHT22;2424;49.696;6.630;2022-08-19T04:36:51;18.00;99.90
4820;DHT22;2424;49.696;6.630;2022-08-19T04:42:15;18.00;99.90
4820;DHT22;2424;49.696;6.630;2022-08-19T04:47:55;18.00;99.90
4820;DHT22;2424;49.696;6.630;2022-08-19T04:53:18;18.00;99.90
4820;DHT22;2424;49.696;6.630;2022-08-19T04:58:43;18.00;99.90
4820;DHT22;2424;49.696;6.630;2022-08-19T05:04:06;17.90;99.90
4820;DHT22;2424;49.696;6.630;2022-08-19T05:09:28;17.90;99.90
4820;DHT22;2424;49.696;6.630;2022-08-19T05:14:52;17.90;99.90
4820;DHT22;2424;49.696;6.630;2022-08-19T05:20:14;18.00;99.90
4820;DHT22;2424;49.696;6.630;2022-08-19T05:25:54;18.10;99.90
4820;DHT22;2424;49.696;6.630;2022-08-19T05:31:18;18.10;99.90
4820;DHT22;2424;49.696;6.630;2022-08-19T05:36:42;18.20;99.90
4820;DHT22;2424;49.696;6.630;2022-08-19T05:42:07;18.30;99.90
4820;DHT22;2424;49.696;6.630;2022-08-19T05:47:30;18.30;99.90
4820;DHT22;2424;49.696;6.630;2022-08-19T05:52:52;18.40;99.90
4820;DHT22;2424;49.696;6.630;2022-08-19T05:58:15;18.50;99.90
4820;DHT22;2424;49.696;6.630;2022-08-19T06:03:39;18.50;99.90
4820;DHT22;2424;49.696;6.630;2022-08-19T06:09:03;18.50;99.90
4820;DHT22;2424;49.696;6.630;2022-08-19T06:14:27;18.50;99.90
4820;DHT22;2424;49.696;6.630;2022-08-19T06:19:51;18.50;99.90
4820;DHT22;2424;49.696;6.630;2022-08-19T06:25:15;18.60;99.90
4820;DHT22;2424;49.696;6.630;2022-08-19T06:30:37;18.60;99.90
4820;DHT22;2424;49.696;6.630;2022-08-19T06:36:01;18.60;99.90
4820;DHT22;2424;49.696;6.630;2022-08-19T06:41:23;18.70;99.90
4820;DHT22;2424;49.696;6.630;2022-08-19T06:46:45;18.80;99.90
4820;DHT22;2424;49.696;6.630;2022-08-19T06:52:11;18.90;99.90
4820;DHT22;2424;49.696;6.630;2022-08-19T06:57:33;19.00;99.90
4820;DHT22;2424;49.696;6.630;2022-08-19T07:02:55;19.10;99.90
4820;DHT22;2424;49.696;6.630;2022-08-19T07:08:19;19.20;99.90
4820;DHT22;2424;49.696;6.630;2022-08-19T07:13:41;19.30;99.90
4820;DHT22;2424;49.696;6.630;2022-08-19T07:19:04;19.40;99.90
4820;DHT22;2424;49.696;6.630;2022-08-19T07:24:27;19.50;99.90
4820;DHT22;2424;49.696;6.630;2022-08-19T07:29:49;19.50;99.90
4820;DHT22;2424;49.696;6.630;2022-08-19T07:35:11;19.60;99.90
4820;DHT22;2424;49.696;6.630;2022-08-19T07:40:35;19.70;99.90
4820;DHT22;2424;49.696;6.630;2022-08-19T07:45:57;19.80;99.90
4820;DHT22;2424;49.696;6.630;2022-08-19T07:51:21;19.80;99.90
4820;DHT22;2424;49.696;6.630;2022-08-19T07:56:44;19.90;99.90
4820;DHT22;2424;49.696;6.630;2022-08-19T08:02:08;20.00;99.90
4820;DHT22;2424;49.696;6.630;2022-08-19T08:07:30;20.20;99.90
4820;DHT22;2424;49.696;6.630;2022-08-19T08:13:11;20.40;99.90
4820;DHT22;2424;49.696;6.630;2022-08-19T08:18:33;20.50;99.90
4820;DHT22;2424;49.696;6.630;2022-08-19T08:24:02;20.60;99.90
4820;DHT22;2424;49.696;6.630;2022-08-19T08:29:26;20.80;99.90
4820;DHT22;2424;49.696;6.630;2022-08-19T08:34:48;20.90;99.90
4820;DHT22;2424;49.696;6.630;2022-08-19T08:40:18;21.10;99.90
4820;DHT22;2424;49.696;6.630;2022-08-19T08:45:49;21.20;99.90
4820;DHT22;2424;49.696;6.630;2022-08-19T08:51:16;21.30;99.90
4820;DHT22;2424;49.696;6.630;2022-08-19T08:56:41;21.40;99.90
4820;DHT22;2424;49.696;6.630;2022-08-19T09:02:05;21.50;99.90
4820;DHT22;2424;49.696;6.630;2022-08-19T09:07:37;21.60;99.90
4820;DHT22;2424;49.696;6.630;2022-08-19T09:13:07;21.60;99.90
4820;DHT22;2424;49.696;6.630;2022-08-19T09:18:42;21.80;99.90
4820;DHT22;2424;49.696;6.630;2022-08-19T09:24:06;21.90;99.90
4820;DHT22;2424;49.696;6.630;2022-08-19T09:29:28;21.90;99.90
4820;DHT22;2424;49.696;6.630;2022-08-19T09:34:51;22.10;99.90
4820;DHT22;2424;49.696;6.630;2022-08-19T09:40:15;22.30;99.90
4820;DHT22;2424;49.696;6.630;2022-08-19T09:45:37;22.20;99.90
4820;DHT22;2424;49.696;6.630;2022-08-19T09:51:05;22.30;99.90
4820;DHT22;2424;49.696;6.630;2022-08-19T09:56:29;22.40;99.90
4820;DHT22;2424;49.696;6.630;2022-08-19T10:01:52;22.50;99.90
4820;DHT22;2424;49.696;6.630;2022-08-19T10:07:15;22.60;99.90
4820;DHT22;2424;49.696;6.630;2022-08-19T10:12:37;22.70;99.90
4820;DHT22;2424;49.696;6.630;2022-08-19T10:17:59;22.70;99.90
4820;DHT22;2424;49.696;6.630;2022-08-19T10:23:23;22.70;99.90
4820;DHT22;2424;49.696;6.630;2022-08-19T10:28:45;22.90;99.90
4820;DHT22;2424;49.696;6.630;2022-08-19T10:34:07;23.20;99.90
4820;DHT22;2424;49.696;6.630;2022-08-19T10:39:32;23.20;99.90
4820;DHT22;2424;49.696;6.630;2022-08-19T10:44:54;23.30;99.90
4820;DHT22;2424;49.696;6.630;2022-08-19T10:50:16;23.40;99.90
4820;DHT22;2424;49.696;6.630;2022-08-19T10:55:56;23.40;99.90
4820;DHT22;2424;49.696;6.630;2022-08-19T11:01:36;23.60;99.90
4820;DHT22;2424;49.696;6.630;2022-08-19T11:06:58;23.90;99.90
4820;DHT22;2424;49.696;6.630;2022-08-19T11:12:21;24.00;99.90
4820;DHT22;2424;49.696;6.630;2022-08-19T11:17:44;24.30;99.90
4820;DHT22;2424;49.696;6.630;2022-08-19T11:23:06;24.70;99.90
4820;DHT22;2424;49.696;6.630;2022-08-19T11:28:29;25.10;99.90
4820;DHT22;2424;49.696;6.630;2022-08-19T11:33:51;24.90;99.90
4820;DHT22;2424;49.696;6.630;2022-08-19T11:39:16;25.00;99.90
4820;DHT22;2424;49.696;6.630;2022-08-19T11:44:39;25.30;99.90
4820;DHT22;2424;49.696;6.630;2022-08-19T11:50:01;25.10;99.90
4820;DHT22;2424;49.696;6.630;2022-08-19T11:55:23;25.00;99.90
4820;DHT22;2424;49.696;6.630;2022-08-19T12:00:47;25.30;99.90
4820;DHT22;2424;49.696;6.630;2022-08-19T12:06:10;25.10;99.90
4820;DHT22;2424;49.696;6.630;2022-08-19T12:11:33;25.70;99.90
4820;DHT22;2424;49.696;6.630;2022-08-19T12:16:58;26.10;99.90
4820;DHT22;2424;49.696;6.630;2022-08-19T12:22:20;26.20;99.90
4820;DHT22;2424;49.696;6.630;2022-08-19T12:27:42;26.10;99.90
4820;DHT22;2424;49.696;6.630;2022-08-19T12:33:07;25.50;99.90
4820;DHT22;2424;49.696;6.630;2022-08-19T12:38:29;25.80;99.90
4820;DHT22;2424;49.696;6.630;2022-08-19T12:43:51;25.80;99.90
4820;DHT22;2424;49.696;6.630;2022-08-19T12:49:14;25.70;99.90
4820;DHT22;2424;49.696;6.630;2022-08-19T12:54:37;25.70;99.90
4820;DHT22;2424;49.696;6.630;2022-08-19T13:00:01;26.10;99.90
4820;DHT22;2424;49.696;6.630;2022-08-19T13:05:28;26.90;99.90
4820;DHT22;2424;49.696;6.630;2022-08-19T13:10:51;26.70;99.90
4820;DHT22;2424;49.696;6.630;2022-08-19T13:16:14;27.00;99.90
4820;DHT22;2424;49.696;6.630;2022-08-19T13:21:37;27.00;99.90
4820;DHT22;2424;49.696;6.630;2022-08-19T13:26:59;27.10;99.90
4820;DHT22;2424;49.696;6.630;2022-08-19T13:32:21;27.50;99.90
4820;DHT22;2424;49.696;6.630;2022-08-19T13:38:02;27.40;99.90
4820;DHT22;2424;49.696;6.630;2022-08-19T13:43:26;27.50;99.90
4820;DHT22;2424;49.696;6.630;2022-08-19T13:48:49;27.20;98.00
4820;DHT22;2424;49.696;6.630;2022-08-19T13:54:13;27.50;98.30
4820;DHT22;2424;49.696;6.630;2022-08-19T13:59:35;27.60;98.00
4820;DHT22;2424;49.696;6.630;2022-08-19T14:04:58;27.60;96.90
4820;DHT22;2424;49.696;6.630;2022-08-19T14:10:22;27.60;97.20
4820;DHT22;2424;49.696;6.630;2022-08-19T14:15:45;27.60;98.40
4820;DHT22;2424;49.696;6.630;2022-08-19T14:21:13;27.90;97.90
4820;DHT22;2424;49.696;6.630;2022-08-19T14:26:37;27.90;96.60
4820;DHT22;2424;49.696;6.630;2022-08-19T14:31:59;27.60;98.70
4820;DHT22;2424;49.696;6.630;2022-08-19T14:37:22;27.30;99.90
4820;DHT22;2424;49.696;6.630;2022-08-19T14:42:45;27.10;99.90
4820;DHT22;2424;49.696;6.630;2022-08-19T14:48:09;27.20;99.90
4820;DHT22;2424;49.696;6.630;2022-08-19T14:53:31;26.90;99.90
4820;DHT22;2424;49.696;6.630;2022-08-19T14:58:56;27.10;99.90
4820;DHT22;2424;49.696;6.630;2022-08-19T15:04:21;26.90;99.90
4820;DHT22;2424;49.696;6.630;2022-08-19T15:09:43;26.60;99.90
4820;DHT22;2424;49.696;6.630;2022-08-19T15:15:09;26.80;99.90
4820;DHT22;2424;49.696;6.630;2022-08-19T15:20:33;27.10;99.90
4820;DHT22;2424;49.696;6.630;2022-08-19T15:25:55;27.40;99.90
4820;DHT22;2424;49.696;6.630;2022-08-19T15:31:20;27.60;99.90
4820;DHT22;2424;49.696;6.630;2022-08-19T15:36:42;27.60;99.90
4820;DHT22;2424;49.696;6.630;2022-08-19T15:42:05;27.40;99.90
4820;DHT22;2424;49.696;6.630;2022-08-19T15:47:29;27.80;99.90
4820;DHT22;2424;49.696;6.630;2022-08-19T15:52:53;27.50;99.90
4820;DHT22;2424;49.696;6.630;2022-08-19T15:58:16;27.30;99.90
4820;DHT22;2424;49.696;6.630;2022-08-19T16:03:57;27.40;99.90
4820;DHT22;2424;49.696;6.630;2022-08-19T16:09:38;27.60;99.90
4820;DHT22;2424;49.696;6.630;2022-08-19T16:15:00;27.10;99.90
4820;DHT22;2424;49.696;6.630;2022-08-19T16:20:24;27.10;99.90
4820;DHT22;2424;49.696;6.630;2022-08-19T16:25:46;27.00;99.90
4820;DHT22;2424;49.696;6.630;2022-08-19T16:31:09;26.80;99.90
4820;DHT22;2424;49.696;6.630;2022-08-19T16:36:33;26.90;99.90
4820;DHT22;2424;49.696;6.630;2022-08-19T16:41:55;26.60;99.90
4820;DHT22;2424;49.696;6.630;2022-08-19T16:47:17;26.50;99.90
4820;DHT22;2424;49.696;6.630;2022-08-19T16:52:41;26.70;99.90
4820;DHT22;2424;49.696;6.630;2022-08-19T16:58:02;26.80;99.90
4820;DHT22;2424;49.696;6.630;2022-08-19T17:03:25;26.60;99.90
4820;DHT22;2424;49.696;6.630;2022-08-19T17:08:50;26.40;99.90
4820;DHT22;2424;49.696;6.630;2022-08-19T17:14:12;26.30;99.90
4820;DHT22;2424;49.696;6.630;2022-08-19T17:19:34;26.00;99.90
4820;DHT22;2424;49.696;6.630;2022-08-19T17:24:58;25.70;99.90
4820;DHT22;2424;49.696;6.630;2022-08-19T17:30:20;25.70;99.90
4820;DHT22;2424;49.696;6.630;2022-08-19T17:35:43;25.50;99.90
4820;DHT22;2424;49.696;6.630;2022-08-19T17:41:07;25.30;99.90
4820;DHT22;2424;49.696;6.630;2022-08-19T17:46:30;25.20;99.90
4820;DHT22;2424;49.696;6.630;2022-08-19T17:51:52;25.20;99.90
4820;DHT22;2424;49.696;6.630;2022-08-19T17:57:16;25.10;99.90
4820;DHT22;2424;49.696;6.630;2022-08-19T18:02:43;25.00;99.90
4820;DHT22;2424;49.696;6.630;2022-08-19T18:08:06;24.90;99.90
4820;DHT22;2424;49.696;6.630;2022-08-19T18:13:32;24.90;99.90
4820;DHT22;2424;49.696;6.630;2022-08-19T18:18:55;24.80;99.90
4820;DHT22;2424;49.696;6.630;2022-08-19T18:24:18;24.60;99.90
4820;DHT22;2424;49.696;6.630;2022-08-19T18:29:41;24.60;99.90
4820;DHT22;2424;49.696;6.630;2022-08-19T18:35:08;24.50;99.90
4820;DHT22;2424;49.696;6.630;2022-08-19T18:40:31;24.50;99.90
4820;DHT22;2424;49.696;6.630;2022-08-19T18:46:12;24.30;99.90
4820;DHT22;2424;49.696;6.630;2022-08-19T18:51:57;24.20;99.90
4820;DHT22;2424;49.696;6.630;2022-08-19T18:57:19;24.10;99.90
4820;DHT22;2424;49.696;6.630;2022-08-19T19:02:45;24.00;99.90
4820;DHT22;2424;49.696;6.630;2022-08-19T19:08:07;24.00;99.90
4820;DHT22;2424;49.696;6.630;2022-08-19T19:13:30;23.90;99.90
4820;DHT22;2424;49.696;6.630;2022-08-19T19:18:54;23.90;99.90
4820;DHT22;2424;49.696;6.630;2022-08-19T19:24:18;23.80;99.90
4820;DHT22;2424;49.696;6.630;2022-08-19T19:29:41;23.70;99.90
4820;DHT22;2424;49.696;6.630;2022-08-19T19:35:06;23.60;99.90
4820;DHT22;2424;49.696;6.630;2022-08-19T19:40:29;23.50;99.90
4820;DHT22;2424;49.696;6.630;2022-08-19T19:45:51;23.40;99.90
4820;DHT22;2424;49.696;6.630;2022-08-19T19:51:15;23.30;99.90
4820;DHT22;2424;49.696;6.630;2022-08-19T19:56:38;23.30;99.90
4820;DHT22;2424;49.696;6.630;2022-08-19T20:02:05;23.30;99.90
4820;DHT22;2424;49.696;6.630;2022-08-19T20:07:29;23.10;99.90
4820;DHT22;2424;49.696;6.630;2022-08-19T20:13:06;23.10;99.90
4820;DHT22;2424;49.696;6.630;2022-08-19T20:18:28;22.90;99.90
4820;DHT22;2424;49.696;6.630;2022-08-19T20:23:52;23.00;99.90
4820;DHT22;2424;49.696;6.630;2022-08-19T20:29:15;22.90;99.90
4820;DHT22;2424;49.696;6.630;2022-08-19T20:34:38;22.90;99.90
4820;DHT22;2424;49.696;6.630;2022-08-19T20:40:03;23.00;99.90
4820;DHT22;2424;49.696;6.630;2022-08-19T20:45:25;22.90;99.90
4820;DHT22;2424;49.696;6.630;2022-08-19T20:50:47;22.90;99.90
4820;DHT22;2424;49.696;6.630;2022-08-19T20:56:10;22.90;99.90
4820;DHT22;2424;49.696;6.630;2022-08-19T21:01:32;22.80;99.90
4820;DHT22;2424;49.696;6.630;2022-08-19T21:06:54;22.80;99.90
4820;DHT22;2424;49.696;6.630;2022-08-19T21:12:17;22.80;99.90
4820;DHT22;2424;49.696;6.630;2022-08-19T21:17:39;22.60;99.90
4820;DHT22;2424;49.696;6.630;2022-08-19T21:23:02;22.60;99.90
4820;DHT22;2424;49.696;6.630;2022-08-19T21:28:27;22.60;99.90
4820;DHT22;2424;49.696;6.630;2022-08-19T21:33:49;22.60;99.90
4820;DHT22;2424;49.696;6.630;2022-08-19T21:39:11;22.50;99.90
4820;DHT22;2424;49.696;6.630;2022-08-19T21:44:35;22.50;99.90
4820;DHT22;2424;49.696;6.630;2022-08-19T21:49:57;22.50;99.90
4820;DHT22;2424;49.696;6.630;2022-08-19T21:55:19;22.40;99.90
4820;DHT22;2424;49.696;6.630;2022-08-19T22:00:43;22.30;99.90
4820;DHT22;2424;49.696;6.630;2022-08-19T22:06:05;22.30;99.90
4820;DHT22;2424;49.696;6.630;2022-08-19T22:11:28;22.30;99.90
4820;DHT22;2424;49.696;6.630;2022-08-19T22:16:51;22.20;99.90
4820;DHT22;2424;49.696;6.630;2022-08-19T22:22:19;21.90;99.90
4820;DHT22;2424;49.696;6.630;2022-08-19T22:27:41;21.80;99.90
4820;DHT22;2424;49.696;6.630;2022-08-19T22:33:09;22.00;99.90
4820;DHT22;2424;49.696;6.630;2022-08-19T22:38:32;21.90;99.90
4820;DHT22;2424;49.696;6.630;2022-08-19T22:43:54;21.90;99.90
4820;DHT22;2424;49.696;6.630;2022-08-19T22:49:18;21.70;99.90
4820;DHT22;2424;49.696;6.630;2022-08-19T22:54:40;21.80;99.90
4820;DHT22;2424;49.696;6.630;2022-08-19T23:00:04;21.70;99.90
4820;DHT22;2424;49.696;6.630;2022-08-19T23:05:29;21.60;99.90
4820;DHT22;2424;49.696;6.630;2022-08-19T23:10:51;21.50;99.90
4820;DHT22;2424;49.696;6.630;2022-08-19T23:16:13;21.40;99.90
4820;DHT22;2424;49.696;6.630;2022-08-19T23:21:37;21.40;99.90
4820;DHT22;2424;49.696;6.630;2022-08-19T23:26:59;21.50;99.90
4820;DHT22;2424;49.696;6.630;2022-08-19T23:32:38;21.40;99.90
4820;DHT22;2424;49.696;6.630;2022-08-19T23:38:03;21.30;99.90
4820;DHT22;2424;49.696;6.630;2022-08-19T23:43:27;21.40;99.90
4820;DHT22;2424;49.696;6.630;2022-08-19T23:48:50;21.50;99.90
4820;DHT22;2424;49.696;6.630;2022-08-19T23:54:13;21.40;99.90
4820;DHT22;2424;49.696;6.630;2022-08-19T23:59:36;21.40;99.90
